Time;durP1;ratioP1;P1;durP2;ratioP2;P2;SDS_P1;SDS_P2;PMS_P1;PMS_P2;Temp;Humidity;BMP_temperature;BMP_pressure;BME280_temperature;BME280_humidity;BME280_pressure;Samples;Min_cycle;Max_cycle;Signal;HPM_P1;HPM_P2
2023/07/19 00:00:37;;;;;;;6.45;0.95;;;;;;;15.00;100.00;97802.66;5138382;27;20435;-63
2023/07/19 00:03:03;;;;;;;1.38;0.90;;;;;;;15.03;100.00;97796.28;5138897;27;20134;-63
2023/07/19 00:05:29;;;;;;;4.50;0.98;;;;;;;14.99;100.00;97778.22;5138325;28;20054;-63
2023/07/19 00:07:56;;;;;;;4.30;0.90;;;;;;;14.82;100.00;97730.50;5138597;27;20059;-63
2023/07/19 00:10:22;;;;;;;2.33;0.98;;;;;;;14.93;100.00;97736.59;5138215;28;20053;-63
2023/07/19 00:12:48;;;;;;;1.30;1.02;;;;;;;14.74;100.00;97707.06;5138786;27;20137;-63
2023/07/19 00:15:14;;;;;;;1.80;0.95;;;;;;;14.89;100.00;97735.88;5138165;28;20053;-63
2023/07/19 00:17:42;;;;;;;1.48;0.90;;;;;;;14.80;100.00;97728.19;5138166;28;20062;-63
2023/07/19 00:20:08;;;;;;;1.55;0.80;;;;;;;14.73;100.00;97727.56;5138435;28;20137;-63
2023/07/19 00:22:34;;;;;;;3.63;0.95;;;;;;;14.84;100.00;97706.03;5138267;28;20335;-63
2023/07/19 00:25:01;;;;;;;1.52;0.90;;;;;;;14.55;100.00;97711.41;5138186;28;20043;-63
2023/07/19 00:27:27;;;;;;;2.60;1.00;;;;;;;14.72;100.00;97701.94;5138106;28;20051;-63
2023/07/19 00:29:53;;;;;;;3.38;1.00;;;;;;;14.71;100.00;97702.38;5138306;28;20118;-63
2023/07/19 00:32:19;;;;;;;2.17;0.90;;;;;;;14.81;100.00;97693.09;5138027;27;20321;-63
2023/07/19 00:34:46;;;;;;;3.40;0.85;;;;;;;14.76;100.00;97694.41;5138366;27;20047;-63
2023/07/19 00:37:12;;;;;;;3.17;0.98;;;;;;;14.78;100.00;97691.97;5137860;27;20185;-63
2023/07/19 00:39:38;;;;;;;2.10;0.80;;;;;;;14.83;100.00;97691.47;5138348;28;20059;-63
2023/07/19 00:42:05;;;;;;;1.95;0.93;;;;;;;14.81;100.00;97679.31;5137764;27;20115;-63
2023/07/19 00:44:31;;;;;;;1.58;1.00;;;;;;;14.61;100.00;97660.03;5137716;28;20142;-63
2023/07/19 00:46:59;;;;;;;2.17;1.10;;;;;;;14.43;100.00;97654.91;5137991;28;20043;-63
2023/07/19 00:49:25;;;;;;;3.20;1.00;;;;;;;14.55;100.00;97650.72;5137812;28;20112;-63
2023/07/19 00:51:51;;;;;;;2.78;0.90;;;;;;;14.53;100.00;97658.66;5137711;27;20358;-63
2023/07/19 00:54:18;;;;;;;8.57;1.27;;;;;;;14.62;100.00;97655.31;5137218;28;20105;-63
2023/07/19 00:56:46;;;;;;;1.15;0.93;;;;;;;14.54;100.00;97646.44;5137953;28;20082;-63
2023/07/19 00:59:14;;;;;;;3.28;0.90;;;;;;;14.58;100.00;97650.66;5137647;28;20065;-63
2023/07/19 01:01:42;;;;;;;3.08;0.80;;;;;;;14.50;100.00;97662.25;5137969;28;20047;-63
2023/07/19 01:04:08;;;;;;;4.68;1.08;;;;;;;14.54;100.00;97701.56;5137555;28;20082;-63
2023/07/19 01:06:34;;;;;;;3.83;1.35;;;;;;;14.48;100.00;97708.75;5137801;27;20077;-63
2023/07/19 01:09:00;;;;;;;4.35;1.00;;;;;;;14.44;100.00;97697.81;5137403;28;20325;-63
2023/07/19 01:11:26;;;;;;;3.85;1.30;;;;;;;14.33;100.00;97755.94;5137735;28;20142;-63
2023/07/19 01:13:53;;;;;;;4.40;1.17;;;;;;;14.38;100.00;97734.56;5137608;28;20142;-63
2023/07/19 01:16:19;;;;;;;3.22;1.08;;;;;;;14.32;100.00;97775.63;5137310;28;20047;-63
2023/07/19 01:18:45;;;;;;;2.42;1.10;;;;;;;14.31;100.00;97763.06;5137389;28;20051;-63
2023/07/19 01:21:11;;;;;;;1.50;0.75;;;;;;;14.25;100.00;97819.88;5137466;28;20051;-63
2023/07/19 01:23:38;;;;;;;1.70;1.05;;;;;;;14.20;100.00;97815.66;5137598;27;20043;-63
2023/07/19 01:26:04;;;;;;;2.35;1.17;;;;;;;14.23;100.00;97806.53;5137261;27;20047;-63
2023/07/19 01:28:30;;;;;;;5.53;1.27;;;;;;;14.20;100.00;97795.56;5137473;28;20130;-63
2023/07/19 01:30:56;;;;;;;3.05;1.23;;;;;;;14.07;100.00;97809.97;5137275;28;20414;-63
2023/07/19 01:33:22;;;;;;;2.13;1.05;;;;;;;13.92;100.00;97849.19;5137476;27;20435;-63
2023/07/19 01:35:48;;;;;;;5.63;1.20;;;;;;;14.14;100.00;97877.97;5137049;28;20111;-63
2023/07/19 01:38:14;;;;;;;2.75;1.13;;;;;;;14.16;100.00;97841.69;5137442;27;20051;-63
2023/07/19 01:40:40;;;;;;;6.90;1.45;;;;;;;14.15;100.00;97874.00;5136971;27;20059;-63
2023/07/19 01:43:06;;;;;;;3.70;1.20;;;;;;;14.02;100.00;97926.16;5136966;28;20047;-63
2023/07/19 01:45:32;;;;;;;1.98;1.00;;;;;;;14.07;100.00;97999.34;5137259;28;20057;-63
2023/07/19 01:47:58;;;;;;;6.32;1.15;;;;;;;13.98;100.00;98035.66;5137079;28;20051;-63
2023/07/19 01:50:24;;;;;;;4.32;1.00;;;;;;;13.91;100.00;98024.75;5137193;28;20151;-63
2023/07/19 01:52:50;;;;;;;4.85;1.23;;;;;;;13.95;100.00;98132.16;5137073;28;20408;-63
2023/07/19 01:55:16;;;;;;;6.82;1.42;;;;;;;13.82;100.00;98131.91;5137038;28;20051;-63
2023/07/19 01:57:43;;;;;;;1.10;1.00;;;;;;;13.89;100.00;98222.72;5136963;28;20137;-63
2023/07/19 02:00:09;;;;;;;3.40;1.33;;;;;;;13.73;100.00;98121.41;5137057;27;20362;-63
2023/07/19 02:02:35;;;;;;;1.48;0.80;;;;;;;13.88;100.00;98188.91;5136796;28;20129;-63
2023/07/19 02:05:01;;;;;;;5.85;2.00;;;;;;;13.94;100.00;98177.44;5138398;27;20476;-63
2023/07/19 02:07:27;;;;;;;1.88;1.00;;;;;;;13.82;100.00;98259.41;5140189;27;20057;-63
2023/07/19 02:09:53;;;;;;;3.63;0.90;;;;;;;13.84;100.00;98312.13;5140601;27;20057;-63
2023/07/19 02:12:19;;;;;;;9.70;1.17;;;;;;;13.95;100.00;98314.00;5140569;28;20047;-63
2023/07/19 02:14:46;;;;;;;5.43;1.60;;;;;;;13.86;100.00;98356.59;5140436;28;20138;-63
2023/07/19 02:17:12;;;;;;;2.45;1.30;;;;;;;13.89;100.00;98380.59;5140454;28;20047;-63
2023/07/19 02:19:37;;;;;;;6.18;1.50;;;;;;;13.64;100.00;98350.47;5140074;28;20051;-63
2023/07/19 02:22:04;;;;;;;6.78;1.92;;;;;;;13.91;100.00;98332.56;5140167;27;20051;-63
2023/07/19 02:24:30;;;;;;;1.10;1.00;;;;;;;13.55;100.00;98374.91;5140180;28;20139;-63
2023/07/19 02:26:56;;;;;;;5.25;1.27;;;;;;;13.91;100.00;98396.69;5140372;28;20468;-63
2023/07/19 02:29:22;;;;;;;2.20;1.25;;;;;;;13.80;100.00;98374.75;5139848;28;20055;-63
2023/07/19 02:31:49;;;;;;;0.93;0.90;;;;;;;13.96;100.00;98456.09;5140234;28;20138;-63
2023/07/19 02:34:18;;;;;;;3.50;1.30;;;;;;;13.99;100.00;98439.53;5139850;28;20051;-63
2023/07/19 02:36:44;;;;;;;2.55;1.27;;;;;;;13.86;100.00;98386.09;5140226;27;20051;-63
2023/07/19 02:39:10;;;;;;;1.95;1.00;;;;;;;14.06;100.00;98463.50;5139746;27;20532;-63
2023/07/19 02:41:36;;;;;;;1.70;1.08;;;;;;;14.05;100.00;98421.38;5139987;28;20131;-63
2023/07/19 02:44:02;;;;;;;2.92;1.42;;;;;;;14.37;100.00;98428.59;5139691;28;20057;-63
2023/07/19 02:46:28;;;;;;;2.97;1.13;;;;;;;14.81;100.00;98253.16;5139873;27;20054;-63
2023/07/19 02:48:55;;;;;;;2.72;1.02;;;;;;;15.32;100.00;98038.59;5139890;27;20055;-63
2023/07/19 02:51:21;;;;;;;2.83;1.33;;;;;;;15.66;100.00;97838.63;5139783;28;20188;-63
2023/07/19 02:53:47;;;;;;;4.20;0.95;;;;;;;15.99;100.00;97715.84;5139918;27;20047;-63
2023/07/19 02:56:13;;;;;;;4.88;1.40;;;;;;;16.35;100.00;97653.22;5139465;28;20062;-63
2023/07/19 02:58:39;;;;;;;5.75;1.25;;;;;;;16.46;100.00;97621.28;5139807;27;20054;-63
2023/07/19 03:01:05;;;;;;;3.92;1.30;;;;;;;16.55;100.00;97628.88;5139521;28;20104;-63
2023/07/19 03:03:31;;;;;;;4.80;1.70;;;;;;;16.93;100.00;97622.63;5139859;28;20294;-63
2023/07/19 03:05:57;;;;;;;1.70;1.10;;;;;;;17.30;100.00;97643.16;5139335;27;20051;-63
2023/07/19 03:08:23;;;;;;;4.70;1.60;;;;;;;17.63;100.00;97687.16;5139732;28;20111;-63
2023/07/19 03:10:52;;;;;;;3.70;1.30;;;;;;;17.65;100.00;97712.41;5139419;28;20055;-63
2023/07/19 03:13:18;;;;;;;6.03;1.25;;;;;;;17.63;100.00;97742.59;5139170;28;20055;-63
2023/07/19 03:15:46;;;;;;;4.03;1.52;;;;;;;18.21;100.00;97742.19;5139093;27;20047;-63
2023/07/19 03:18:12;;;;;;;4.68;1.10;;;;;;;18.42;100.00;97792.59;5139166;28;20047;-63
2023/07/19 03:20:38;;;;;;;1.13;0.95;;;;;;;18.70;100.00;97816.53;5139518;28;20392;-63
2023/07/19 03:23:05;;;;;;;2.83;1.00;;;;;;;18.91;100.00;97867.00;5139062;28;20053;-63
2023/07/19 03:25:31;;;;;;;2.45;0.95;;;;;;;19.30;100.00;97887.75;5139100;28;20102;-63
2023/07/19 03:27:57;;;;;;;3.22;0.80;;;;;;;19.21;100.00;97921.81;5139036;28;20416;-63
2023/07/19 03:30:23;;;;;;;11.18;1.15;;;;;;;18.93;100.00;97900.66;5139411;28;20439;-63
2023/07/19 03:32:49;;;;;;;4.05;1.35;;;;;;;19.47;100.00;97955.03;5139017;27;20069;-63
2023/07/19 03:35:15;;;;;;;3.70;1.17;;;;;;;19.65;100.00;97962.72;5138947;28;20047;-63
2023/07/19 03:37:44;;;;;;;2.28;1.42;;;;;;;19.64;100.00;98014.00;5138732;27;20472;-63
2023/07/19 03:40:11;;;;;;;3.72;1.25;;;;;;;19.66;100.00;98045.69;5139057;28;20051;-62
2023/07/19 03:42:37;;;;;;;2.90;1.13;;;;;;;19.36;100.00;98005.44;5138787;28;20156;-63
2023/07/19 03:45:04;;;;;;;3.08;1.08;;;;;;;19.38;100.00;97977.19;5138909;27;20146;-63
2023/07/19 03:47:30;;;;;;;4.53;1.45;;;;;;;19.45;100.00;97968.59;5139041;28;20187;-63
2023/07/19 03:49:56;;;;;;;3.38;1.10;;;;;;;19.92;100.00;98037.94;5138614;28;20378;-63
2023/07/19 03:52:21;;;;;;;4.80;1.65;;;;;;;19.77;100.00;98031.38;5138959;27;20137;-63
2023/07/19 03:54:50;;;;;;;4.28;1.42;;;;;;;19.49;100.00;98005.34;5138704;28;20075;-63
2023/07/19 03:57:17;;;;;;;1.95;1.17;;;;;;;20.11;100.00;98016.56;5139050;27;20180;-63
2023/07/19 03:59:42;;;;;;;2.33;1.33;;;;;;;20.40;100.00;98054.41;5138615;28;20055;-63
2023/07/19 04:02:08;;;;;;;4.93;1.30;;;;;;;20.71;100.00;98087.78;5138845;27;20368;-63
2023/07/19 04:04:34;;;;;;;4.88;1.58;;;;;;;20.47;100.00;98095.09;5138463;28;20043;-63
2023/07/19 04:07:00;;;;;;;5.05;1.08;;;;;;;20.67;100.00;98107.44;5138771;27;20138;-63
2023/07/19 04:09:26;;;;;;;3.40;1.33;;;;;;;20.65;100.00;98123.81;5138497;27;20396;-63
2023/07/19 04:11:52;;;;;;;4.72;1.30;;;;;;;20.13;100.00;98063.41;5138598;28;20372;-63
2023/07/19 04:14:19;;;;;;;4.03;1.30;;;;;;;20.49;100.00;98076.69;5138351;28;20412;-63
2023/07/19 04:16:45;;;;;;;3.38;1.20;;;;;;;20.99;100.00;98126.84;5138425;27;20043;-63
2023/07/19 04:19:11;;;;;;;6.22;1.70;;;;;;;21.48;100.00;98179.03;5138319;28;20099;-63
2023/07/19 04:21:37;;;;;;;3.95;1.50;;;;;;;21.16;100.00;98158.81;5138312;28;20047;-63
2023/07/19 04:24:04;;;;;;;7.38;1.50;;;;;;;21.16;100.00;98172.75;5138451;27;20055;-63
2023/07/19 04:26:29;;;;;;;1.92;1.10;;;;;;;21.13;100.00;98159.72;5138034;27;20392;-63
2023/07/19 04:28:58;;;;;;;7.63;2.55;;;;;;;21.52;100.00;98183.19;5137520;28;20072;-63
2023/07/19 04:31:24;;;;;;;4.45;2.25;;;;;;;21.85;100.00;98216.09;5137969;27;20134;-63
2023/07/19 04:33:50;;;;;;;5.93;1.40;;;;;;;22.11;100.00;98238.13;5138460;28;20075;-63
2023/07/19 04:36:17;;;;;;;5.90;1.38;;;;;;;22.16;100.00;98255.06;5137776;27;20043;-63
2023/07/19 04:38:43;;;;;;;2.35;1.17;;;;;;;22.13;100.00;98255.19;5138144;28;20054;-63
2023/07/19 04:41:09;;;;;;;6.75;1.10;;;;;;;21.49;100.00;98233.53;5138065;28;20185;-63
2023/07/19 04:43:35;;;;;;;5.82;1.65;;;;;;;22.58;100.00;98259.19;5137884;28;20161;-62
2023/07/19 04:46:02;;;;;;;2.00;1.30;;;;;;;22.35;100.00;98261.38;5138075;28;20050;-63
2023/07/19 04:48:28;;;;;;;4.85;1.80;;;;;;;22.82;100.00;98265.66;5137720;28;20047;-63
2023/07/19 04:50:54;;;;;;;5.15;1.38;;;;;;;22.95;100.00;98294.22;5137985;27;20051;-63
2023/07/19 04:53:21;;;;;;;4.13;1.27;;;;;;;23.21;100.00;98311.38;5137708;28;20051;-60
2023/07/19 04:55:48;;;;;;;2.67;1.15;;;;;;;23.08;100.00;98312.81;5137938;28;20051;-61
2023/07/19 04:58:14;;;;;;;8.48;1.98;;;;;;;22.90;100.00;98296.84;5137592;28;20063;-61
2023/07/19 05:00:40;;;;;;;3.30;1.30;;;;;;;23.66;100.00;98318.03;5137902;28;20047;-61
2023/07/19 05:03:06;;;;;;;2.58;1.52;;;;;;;23.91;100.00;98332.84;5137320;28;20058;-61
2023/07/19 05:05:32;;;;;;;4.75;1.58;;;;;;;24.13;100.00;98340.94;5137730;27;20047;-60
2023/07/19 05:07:59;;;;;;;5.05;1.90;;;;;;;24.32;100.00;98350.75;5136851;27;20061;-62
2023/07/19 05:10:25;;;;;;;4.72;1.77;;;;;;;24.59;100.00;98357.41;5137295;28;20138;-63
2023/07/19 05:12:52;;;;;;;2.28;1.30;;;;;;;24.66;100.00;98354.28;5137214;28;20483;-61
2023/07/19 05:15:18;;;;;;;5.78;2.00;;;;;;;24.87;100.00;98352.34;5137095;27;20054;-64
2023/07/19 05:17:44;;;;;;;4.15;1.52;;;;;;;24.95;100.00;98349.94;5137272;27;20051;-61
2023/07/19 05:20:10;;;;;;;3.50;1.60;;;;;;;25.19;100.00;98358.28;5137203;28;20452;-59
2023/07/19 05:22:37;;;;;;;4.00;1.40;;;;;;;25.23;100.00;98358.88;5138226;28;20434;-61
2023/07/19 05:25:03;;;;;;;9.00;2.85;;;;;;;25.35;100.00;98357.78;5136943;28;20061;-62
2023/07/19 05:27:29;;;;;;;4.22;1.80;;;;;;;25.41;100.00;98364.28;5137266;28;20051;-62
2023/07/19 05:29:55;;;;;;;3.35;1.70;;;;;;;25.56;97.96;98369.88;5136869;28;20129;-62
2023/07/19 05:32:21;;;;;;;4.40;2.00;;;;;;;25.58;97.97;98365.31;5137202;28;20397;-61
2023/07/19 05:34:47;;;;;;;4.28;1.60;;;;;;;25.67;95.78;98374.88;5136712;27;20393;-60
2023/07/19 05:37:13;;;;;;;2.60;1.48;;;;;;;25.97;95.65;98372.81;5136891;27;20055;-61
2023/07/19 05:39:40;;;;;;;4.63;1.73;;;;;;;26.31;91.05;98376.06;5139227;27;20078;-60
2023/07/19 05:42:07;;;;;;;1.13;0.90;;;;;;;25.97;91.24;98370.75;5140711;28;20062;-60
2023/07/19 05:44:33;;;;;;;3.95;1.65;;;;;;;25.98;93.30;98366.69;5140655;27;20051;-61
2023/07/19 05:46:59;;;;;;;7.07;2.25;;;;;;;26.06;92.50;98364.25;5140213;28;20469;-59
2023/07/19 05:49:25;;;;;;;5.90;1.50;;;;;;;26.51;88.01;98376.09;5140328;27;20112;-61
2023/07/19 05:51:51;;;;;;;3.40;1.48;;;;;;;26.40;88.67;98370.31;5140504;28;20111;-62
2023/07/19 05:54:17;;;;;;;6.93;1.60;;;;;;;26.02;89.47;98367.28;5140160;28;20058;-61
2023/07/19 05:56:43;;;;;;;4.25;1.83;;;;;;;26.22;88.47;98369.28;5140231;28;20183;-61
2023/07/19 05:59:09;;;;;;;2.47;1.52;;;;;;;26.61;86.92;98371.84;5140685;28;20061;-61
2023/07/19 06:01:35;;;;;;;5.53;2.22;;;;;;;26.72;84.25;98372.00;5140076;28;20377;-59
2023/07/19 06:04:01;;;;;;;5.45;2.00;;;;;;;26.24;88.43;98360.41;5139932;28;20053;-59
2023/07/19 06:06:27;;;;;;;4.10;1.58;;;;;;;26.15;88.33;98363.34;5140128;27;20050;-60
2023/07/19 06:08:53;;;;;;;2.55;1.88;;;;;;;25.35;93.14;98349.38;5140218;28;20047;-60
2023/07/19 06:11:19;;;;;;;4.70;1.50;;;;;;;25.74;98.35;98341.56;5139841;27;20358;-61
2023/07/19 06:13:46;;;;;;;5.88;1.60;;;;;;;25.46;93.53;98351.56;5140119;28;20047;-61
2023/07/19 06:16:11;;;;;;;7.22;2.00;;;;;;;25.27;95.30;98348.22;5140250;27;20051;-61
2023/07/19 06:18:37;;;;;;;7.28;2.65;;;;;;;25.00;95.99;98330.41;5139933;27;20133;-61
2023/07/19 06:21:03;;;;;;;5.78;2.20;;;;;;;25.66;88.11;98342.44;5140333;28;20368;-62
2023/07/19 06:23:29;;;;;;;4.60;1.48;;;;;;;25.91;86.38;98349.47;5139995;28;20130;-59
2023/07/19 06:25:55;;;;;;;9.25;1.60;;;;;;;25.98;83.85;98357.50;5140274;28;20062;-59
2023/07/19 06:28:21;;;;;;;3.40;1.50;;;;;;;26.23;81.58;98351.19;5139666;28;20051;-59
2023/07/19 06:30:48;;;;;;;7.70;1.70;;;;;;;26.40;80.92;98340.16;5140038;28;20108;-60
2023/07/19 06:33:14;;;;;;;5.82;1.70;;;;;;;26.51;80.08;98347.97;5139681;28;20145;-59
2023/07/19 06:35:39;;;;;;;6.30;1.95;;;;;;;26.60;82.14;98345.03;5139681;28;20112;-61
2023/07/19 06:38:05;;;;;;;3.45;1.30;;;;;;;26.89;76.23;98351.69;5139928;27;20053;-62
2023/07/19 06:40:31;;;;;;;4.05;1.30;;;;;;;27.18;75.35;98347.91;5139786;28;20142;-63
2023/07/19 06:42:57;;;;;;;2.63;1.38;;;;;;;27.39;75.41;98357.03;5139868;28;20100;-64
2023/07/19 06:45:23;;;;;;;2.80;1.63;;;;;;;27.28;77.42;98345.69;5139480;27;20056;-63
2023/07/19 06:47:50;;;;;;;3.58;1.33;;;;;;;27.81;74.41;98352.78;5139790;27;20047;-62
2023/07/19 06:50:17;;;;;;;4.88;1.33;;;;;;;27.76;72.82;98351.47;5138489;27;20192;-61
2023/07/19 06:52:43;;;;;;;6.25;1.83;;;;;;;27.13;72.54;98355.03;5139853;28;20058;-62
2023/07/19 06:55:09;;;;;;;2.25;1.35;;;;;;;27.65;67.07;98360.56;5139378;27;20050;-62
2023/07/19 06:57:35;;;;;;;3.55;1.30;;;;;;;27.57;68.77;98356.69;5139706;27;20047;-59
2023/07/19 07:00:03;;;;;;;2.97;1.88;;;;;;;26.72;71.38;98348.72;5139387;28;20107;-60
2023/07/19 07:02:29;;;;;;;2.63;1.30;;;;;;;26.73;71.07;98348.22;5139702;28;20062;-62
2023/07/19 07:04:55;;;;;;;2.75;1.20;;;;;;;27.58;72.03;98355.41;5139423;28;20043;-62
2023/07/19 07:07:21;;;;;;;2.67;1.20;;;;;;;27.72;70.59;98352.94;5139086;27;20432;-62
2023/07/19 07:09:47;;;;;;;6.38;1.63;;;;;;;27.70;67.23;98361.88;5139135;27;20137;-63
2023/07/19 07:12:13;;;;;;;7.72;1.75;;;;;;;27.65;65.84;98360.56;5139411;28;20078;-62
2023/07/19 07:14:39;;;;;;;6.90;1.30;;;;;;;27.66;65.69;98352.91;5139170;27;20058;-60
2023/07/19 07:17:06;;;;;;;4.05;1.20;;;;;;;27.78;66.07;98353.78;5138922;28;20047;-60
2023/07/19 07:19:32;;;;;;;2.17;1.20;;;;;;;28.00;66.34;98339.06;5139281;27;20377;-61
2023/07/19 07:21:59;;;;;;;3.83;1.50;;;;;;;28.15;63.94;98359.34;5139047;28;20061;-60
2023/07/19 07:24:25;;;;;;;2.55;1.50;;;;;;;28.78;63.93;98359.09;5139289;28;20312;-59
2023/07/19 07:26:51;;;;;;;3.92;1.90;;;;;;;28.89;62.75;98349.91;5138897;28;20047;-61
2023/07/19 07:29:17;;;;;;;4.53;1.42;;;;;;;28.85;61.99;98361.44;5139150;28;20388;-61
2023/07/19 07:31:42;;;;;;;4.20;1.13;;;;;;;28.64;61.45;98354.47;5138645;27;20051;-62
2023/07/19 07:34:09;;;;;;;3.53;1.10;;;;;;;29.15;61.34;98351.75;5139057;28;20473;-62
2023/07/19 07:36:35;;;;;;;4.15;1.60;;;;;;;29.45;60.22;98352.78;5138925;27;20054;-62
2023/07/19 07:39:02;;;;;;;3.35;1.75;;;;;;;29.39;60.20;98352.03;5138869;27;20047;-62
2023/07/19 07:41:28;;;;;;;2.95;1.10;;;;;;;28.51;62.26;98348.53;5138657;28;20112;-61
2023/07/19 07:43:54;;;;;;;3.08;1.35;;;;;;;28.05;61.55;98350.34;5138610;27;20046;-59
2023/07/19 07:46:20;;;;;;;3.38;1.27;;;;;;;26.86;65.25;98353.47;5138700;27;20113;-59
2023/07/19 07:48:46;;;;;;;2.80;1.42;;;;;;;26.01;70.46;98342.47;5138497;28;20138;-59
2023/07/19 07:51:12;;;;;;;3.50;1.40;;;;;;;26.65;68.87;98346.34;5138642;27;20137;-59
2023/07/19 07:53:38;;;;;;;3.67;1.27;;;;;;;27.47;69.29;98346.88;5138318;28;20134;-61
2023/07/19 07:56:05;;;;;;;3.30;1.80;;;;;;;27.87;67.09;98353.56;5138512;28;20322;-61
2023/07/19 07:58:31;;;;;;;3.78;1.75;;;;;;;28.26;62.56;98348.16;5138506;28;20362;-60
2023/07/19 08:00:57;;;;;;;2.05;1.20;;;;;;;28.29;61.09;98349.97;5138761;28;20117;-60
2023/07/19 08:03:23;;;;;;;3.15;1.55;;;;;;;28.42;63.59;98338.22;5138496;27;20090;-59
2023/07/19 08:05:48;;;;;;;3.38;1.77;;;;;;;29.08;60.21;98347.41;5138378;28;20058;-58
2023/07/19 08:08:14;;;;;;;3.00;1.17;;;;;;;29.57;60.61;98344.31;5138435;27;20387;-59
2023/07/19 08:10:40;;;;;;;4.25;1.40;;;;;;;29.46;58.78;98350.75;5138353;28;20058;-61
2023/07/19 08:13:07;;;;;;;4.53;2.95;;;;;;;29.72;59.04;98342.81;5138457;28;20051;-62
2023/07/19 08:15:34;;;;;;;4.43;1.25;;;;;;;29.88;58.55;98348.91;5138217;28;20047;-61
2023/07/19 08:18:00;;;;;;;2.78;1.02;;;;;;;29.85;56.48;98349.94;5138365;27;20057;-59
2023/07/19 08:20:27;;;;;;;2.40;1.33;;;;;;;29.33;57.04;98353.31;5138126;28;20047;-61
2023/07/19 08:22:53;;;;;;;7.22;2.00;;;;;;;28.79;58.81;98343.75;5138233;28;20073;-59
2023/07/19 08:25:19;;;;;;;8.55;1.60;;;;;;;29.61;55.97;98350.50;5137854;28;20412;-62
2023/07/19 08:27:45;;;;;;;4.82;1.40;;;;;;;29.49;56.86;98339.19;5138252;28;20078;-59
2023/07/19 08:30:15;;;;;;;6.70;1.40;;;;;;;29.46;56.07;98342.28;5137759;28;20050;-60
2023/07/19 08:32:43;;;;;;;2.83;1.30;;;;;;;29.93;55.86;98346.09;5137963;27;20470;-59
2023/07/19 08:35:09;;;;;;;2.80;1.00;;;;;;;29.78;53.71;98359.72;5137839;27;20052;-62
2023/07/19 08:37:35;;;;;;;2.30;1.48;;;;;;;29.82;54.21;98346.09;5137727;27;20138;-60
2023/07/19 08:40:00;;;;;;;3.67;1.20;;;;;;;30.68;53.12;98343.22;5137950;27;20451;-60
2023/07/19 08:42:27;;;;;;;4.75;1.60;;;;;;;30.83;55.77;98337.28;5137624;28;20134;-60
2023/07/19 08:44:54;;;;;;;2.53;1.20;;;;;;;29.74;56.57;98345.09;5137705;28;20407;-61
2023/07/19 08:47:21;;;;;;;3.90;1.20;;;;;;;28.45;56.49;98347.72;5137645;28;20070;-61
2023/07/19 08:49:47;;;;;;;5.10;1.35;;;;;;;29.20;55.31;98354.59;5137789;28;20297;-60
2023/07/19 08:52:13;;;;;;;1.98;1.08;;;;;;;28.56;59.96;98337.28;5137656;28;20047;-60
2023/07/19 08:54:39;;;;;;;3.40;1.40;;;;;;;29.82;58.11;98343.28;5138045;27;20321;-60
2023/07/19 08:57:05;;;;;;;2.03;1.42;;;;;;;29.41;56.95;98343.81;5137514;27;20157;-60
2023/07/19 08:59:31;;;;;;;4.05;1.52;;;;;;;28.79;59.04;98340.94;5137776;27;20408;-59
2023/07/19 09:01:57;;;;;;;3.20;1.30;;;;;;;27.74;59.71;98345.53;5137193;28;20134;-61
2023/07/19 09:04:24;;;;;;;2.95;1.33;;;;;;;26.64;63.59;98342.75;5137386;28;20142;-61
2023/07/19 09:06:50;;;;;;;2.53;1.40;;;;;;;26.78;64.97;98340.34;5137195;27;20133;-61
2023/07/19 09:09:17;;;;;;;3.15;1.40;;;;;;;27.00;61.87;98332.13;5137338;27;20507;-60
2023/07/19 09:11:46;;;;;;;4.25;2.58;;;;;;;27.54;61.30;98332.34;5137601;28;20051;-60
2023/07/19 09:14:12;;;;;;;4.45;2.42;;;;;;;28.44;61.21;98332.88;5136786;27;20198;-60
2023/07/19 09:16:39;;;;;;;5.25;1.02;;;;;;;28.82;57.80;98330.66;5137056;27;20079;-59
2023/07/19 09:19:08;;;;;;;4.05;1.85;;;;;;;28.44;59.52;98323.66;5137202;28;20119;-62
2023/07/19 09:21:37;;;;;;;2.28;1.15;;;;;;;28.27;59.65;98317.91;5137536;28;20051;-60
2023/07/19 09:24:04;;;;;;;3.88;1.40;;;;;;;26.80;62.48;98312.50;5137143;28;20073;-55
2023/07/19 09:26:44;;;;;;;5.22;1.50;;;;;;;25.95;66.21;98311.50;5136871;27;20074;-53
2023/07/19 09:29:11;;;;;;;2.33;0.95;;;;;;;26.81;66.25;98319.66;5137183;27;20047;-61
2023/07/19 09:31:49;;;;;;;2.45;1.30;;;;;;;27.04;62.67;98315.81;5137042;27;20051;-55
2023/07/19 09:34:15;;;;;;;2.75;1.38;;;;;;;26.50;64.00;98307.84;5137010;27;20370;-56
2023/07/19 09:36:42;;;;;;;3.15;1.20;;;;;;;26.07;68.64;98301.19;5136764;27;20051;-62
2023/07/19 09:39:08;;;;;;;4.10;2.15;;;;;;;25.90;70.53;98295.38;5137059;28;20141;-61
2023/07/19 09:41:34;;;;;;;2.45;1.30;;;;;;;25.59;69.43;98296.72;5136844;28;20074;-61
2023/07/19 09:44:07;;;;;;;2.08;1.20;;;;;;;25.11;69.93;98296.97;5136609;27;20054;-61
2023/07/19 09:46:35;;;;;;;1.87;1.30;;;;;;;25.50;71.42;98288.41;5136668;27;20057;-64
2023/07/19 09:49:01;;;;;;;3.53;1.48;;;;;;;26.41;69.06;98295.97;5136848;28;20047;-62
2023/07/19 09:51:27;;;;;;;5.93;1.75;;;;;;;26.68;67.71;98283.50;5136346;28;20137;-61
2023/07/19 09:53:54;;;;;;;3.75;1.73;;;;;;;26.68;67.14;98289.13;5136601;28;20397;-63
2023/07/19 09:56:20;;;;;;;2.42;1.40;;;;;;;27.52;64.04;98297.50;5136841;28;20043;-62
2023/07/19 09:58:46;;;;;;;4.20;1.77;;;;;;;27.42;65.91;98292.09;5136581;28;20062;-62
2023/07/19 10:01:13;;;;;;;2.20;1.30;;;;;;;27.88;61.58;98287.50;5136705;28;20155;-58
2023/07/19 10:03:39;;;;;;;3.92;1.48;;;;;;;28.24;62.24;98293.56;5136146;28;20047;-59
2023/07/19 10:06:05;;;;;;;3.15;1.67;;;;;;;28.10;62.33;98290.44;5136671;27;20087;-60
2023/07/19 10:08:31;;;;;;;3.58;1.98;;;;;;;28.28;62.91;98285.63;5136530;28;20138;-63
2023/07/19 10:10:59;;;;;;;2.25;1.40;;;;;;;27.88;63.10;98281.88;5136511;27;20294;-63
2023/07/19 10:13:31;;;;;;;2.80;1.67;;;;;;;27.02;62.38;98281.75;5136258;27;20412;-62
2023/07/19 10:15:57;;;;;;;6.93;1.48;;;;;;;27.34;61.76;98278.97;5136706;27;20413;-62
2023/07/19 10:18:24;;;;;;;5.70;1.48;;;;;;;26.85;62.33;98280.84;5136155;27;20066;-61
2023/07/19 10:21:00;;;;;;;5.53;1.50;;;;;;;26.72;64.40;98276.41;5135988;28;20062;-58
2023/07/19 10:23:26;;;;;;;4.10;1.40;;;;;;;26.73;69.08;98266.69;5136143;27;20043;-59
2023/07/19 10:25:52;;;;;;;5.45;1.65;;;;;;;26.27;71.18;98264.66;5137355;27;20058;-56
2023/07/19 10:28:26;;;;;;;5.53;1.85;;;;;;;26.94;66.31;98264.56;5140281;27;20055;-62
2023/07/19 10:30:53;;;;;;;4.85;2.03;;;;;;;26.94;65.29;98272.25;5139523;28;20332;-61
2023/07/19 10:33:22;;;;;;;3.85;1.38;;;;;;;27.00;64.01;98267.44;5139934;28;20437;-61
2023/07/19 10:35:50;;;;;;;2.70;1.52;;;;;;;27.77;62.21;98265.72;5139600;27;20047;-60
2023/07/19 10:38:17;;;;;;;5.13;1.50;;;;;;;27.85;62.22;98261.13;5139992;27;20079;-61
2023/07/19 10:40:45;;;;;;;2.90;1.50;;;;;;;27.57;61.97;98251.75;5139650;27;20062;-61
2023/07/19 10:43:11;;;;;;;5.13;1.65;;;;;;;27.14;62.41;98252.50;5139608;28;20043;-61
2023/07/19 10:45:39;;;;;;;3.47;1.48;;;;;;;26.29;65.13;98250.91;5139978;27;20138;-64
2023/07/19 10:48:05;;;;;;;2.67;1.23;;;;;;;26.49;62.04;98252.94;5139686;28;20047;-64
2023/07/19 10:50:31;;;;;;;2.63;1.38;;;;;;;26.54;62.81;98248.63;5139582;28;20146;-63
2023/07/19 10:52:57;;;;;;;2.08;1.30;;;;;;;26.16;63.63;98241.31;5139521;28;20047;-66
2023/07/19 10:55:23;;;;;;;2.13;1.52;;;;;;;25.78;65.85;98234.69;5139592;28;20092;-60
2023/07/19 10:57:49;;;;;;;4.65;1.60;;;;;;;25.91;65.57;98231.56;5139416;28;20058;-64
2023/07/19 11:00:15;;;;;;;3.90;1.45;;;;;;;25.45;73.27;98218.94;5139586;27;20051;-74
2023/07/19 11:02:42;;;;;;;2.70;1.50;;;;;;;26.08;68.76;98223.31;5139403;28;20048;-59
2023/07/19 11:05:09;;;;;;;3.22;1.40;;;;;;;25.51;67.04;98225.41;5139644;27;20130;-60
2023/07/19 11:07:36;;;;;;;2.35;1.48;;;;;;;25.85;66.21;98223.06;5139577;27;20059;-65
2023/07/19 11:10:02;;;;;;;3.15;1.75;;;;;;;25.51;67.86;98221.81;5139607;28;20464;-60
2023/07/19 11:12:30;;;;;;;6.45;1.70;;;;;;;25.54;65.72;98223.66;5138895;28;20444;-64
2023/07/19 11:14:58;;;;;;;3.58;2.42;;;;;;;25.56;67.75;98218.34;5139271;27;20051;-59
2023/07/19 11:17:25;;;;;;;3.35;1.33;;;;;;;25.54;67.03;98223.66;5139058;28;20436;-62
2023/07/19 11:19:52;;;;;;;3.22;1.50;;;;;;;25.32;67.54;98219.28;5138812;28;20059;-61
2023/07/19 11:22:21;;;;;;;2.72;1.55;;;;;;;25.02;68.52;98215.72;5138990;28;20458;-60
2023/07/19 11:24:49;;;;;;;4.47;1.20;;;;;;;24.47;67.86;98212.78;5139011;27;20046;-59